Time;durP1;ratioP1;P1;durP2;ratioP2;P2;SDS_P1;SDS_P2;PMS_P1;PMS_P2;Temp;Humidity;BMP_temperature;BMP_pressure;BME280_temperature;BME280_humidity;BME280_pressure;Samples;Min_cycle;Max_cycle;Signal;HPM_P1;HPM_P2
2023/06/15 00:03:28;;;;;;;4.32;3.17;;;;;;;;;;20997894;28;20062;-65
2023/06/15 00:13:30;;;;;;;3.55;3.20;;;;;;;;;;20997463;28;20099;-65
2023/06/15 00:23:32;;;;;;;4.60;3.50;;;;;;;;;;20996599;28;20536;-64
2023/06/15 00:33:33;;;;;;;4.75;3.60;;;;;;;;;;20995883;28;20052;-64
2023/06/15 00:43:35;;;;;;;6.03;3.50;;;;;;;;;;20996366;28;20044;-65
2023/06/15 00:53:37;;;;;;;5.88;3.65;;;;;;;;;;21010073;28;20067;-65
2023/06/15 01:03:40;;;;;;;7.13;3.53;;;;;;;;;;21011388;28;20051;-65
2023/06/15 01:13:45;;;;;;;6.07;4.18;;;;;;;;;;21010754;28;20045;-64
2023/06/15 01:24:05;;;;;;;6.22;3.90;;;;;;;;;;21009896;28;20509;-65
2023/06/15 01:34:06;;;;;;;5.22;4.18;;;;;;;;;;21008407;28;20063;-64
2023/06/15 01:44:07;;;;;;;5.18;4.05;;;;;;;;;;21009898;28;20389;-65
2023/06/15 01:54:08;;;;;;;6.75;4.55;;;;;;;;;;21006624;28;20098;-64
2023/06/15 02:04:09;;;;;;;6.30;4.80;;;;;;;;;;21005262;28;20044;-65
2023/06/15 02:14:11;;;;;;;6.32;4.38;;;;;;;;;;21006318;28;20447;-64
2023/06/15 02:24:12;;;;;;;5.55;4.65;;;;;;;;;;21004143;28;20048;-63
2023/06/15 02:34:13;;;;;;;6.32;4.45;;;;;;;;;;21003579;28;20055;-64
2023/06/15 02:44:15;;;;;;;6.45;4.40;;;;;;;;;;21003827;28;20045;-64
2023/06/15 02:54:16;;;;;;;6.80;4.80;;;;;;;;;;21001898;28;20045;-65
2023/06/15 03:04:21;;;;;;;5.60;5.00;;;;;;;;;;21002021;28;20470;-64
2023/06/15 03:14:22;;;;;;;6.55;4.55;;;;;;;;;;20999479;28;20098;-64
2023/06/15 03:24:25;;;;;;;5.68;4.97;;;;;;;;;;20999256;28;20048;-64
2023/06/15 03:34:27;;;;;;;6.30;5.07;;;;;;;;;;20998531;28;20060;-65
2023/06/15 03:44:28;;;;;;;6.75;4.88;;;;;;;;;;20999269;28;20422;-64
2023/06/15 03:54:29;;;;;;;6.35;5.13;;;;;;;;;;20998594;28;20041;-64
2023/06/15 04:04:32;;;;;;;7.85;5.55;;;;;;;;;;20997777;28;20052;-64
2023/06/15 04:14:33;;;;;;;7.90;5.95;;;;;;;;;;20997927;28;20059;-65
2023/06/15 04:24:34;;;;;;;6.85;5.75;;;;;;;;;;20999402;28;20049;-64
2023/06/15 04:34:36;;;;;;;7.32;5.97;;;;;;;;;;20995674;28;20064;-64
2023/06/15 04:44:37;;;;;;;5.80;5.18;;;;;;;;;;20996178;28;20076;-64
2023/06/15 04:54:38;;;;;;;6.95;5.75;;;;;;;;;;20995924;28;20040;-64
2023/06/15 05:04:39;;;;;;;7.85;6.07;;;;;;;;;;20995294;28;20086;-64
2023/06/15 05:14:40;;;;;;;6.65;5.65;;;;;;;;;;20994794;28;20072;-64
2023/06/15 05:24:41;;;;;;;7.30;6.10;;;;;;;;;;20993423;28;20106;-65
2023/06/15 05:34:43;;;;;;;7.68;5.88;;;;;;;;;;20998699;28;20087;-64
2023/06/15 05:44:44;;;;;;;7.55;5.95;;;;;;;;;;21008710;28;20120;-65
2023/06/15 05:54:45;;;;;;;9.88;6.75;;;;;;;;;;21006541;28;20056;-65
2023/06/15 06:04:47;;;;;;;8.57;6.32;;;;;;;;;;21006675;28;20045;-65
2023/06/15 06:14:48;;;;;;;8.38;6.10;;;;;;;;;;21005707;28;20190;-64
2023/06/15 06:24:49;;;;;;;7.53;5.80;;;;;;;;;;21005294;28;20174;-64
2023/06/15 06:34:50;;;;;;;10.15;6.15;;;;;;;;;;21004458;28;20061;-66
2023/06/15 06:44:51;;;;;;;9.27;5.72;;;;;;;;;;21000004;28;20071;-64
2023/06/15 06:54:52;;;;;;;7.88;5.50;;;;;;;;;;21000905;28;20044;-65
2023/06/15 07:04:53;;;;;;;7.30;5.15;;;;;;;;;;21000387;28;20044;-64
2023/06/15 07:14:55;;;;;;;7.07;6.05;;;;;;;;;;20999479;28;20056;-65
2023/06/15 07:24:56;;;;;;;8.18;5.22;;;;;;;;;;20999703;28;20509;-65
2023/06/15 07:34:57;;;;;;;6.75;5.07;;;;;;;;;;20997508;28;20049;-64
2023/06/15 07:44:58;;;;;;;6.80;5.18;;;;;;;;;;20998242;28;20044;-65
2023/06/15 07:55:00;;;;;;;5.57;4.85;;;;;;;;;;20997175;28;20045;-64
2023/06/15 08:05:01;;;;;;;5.47;4.88;;;;;;;;;;20995990;28;20076;-65
2023/06/15 08:15:02;;;;;;;8.45;5.13;;;;;;;;;;20995610;28;20478;-65
2023/06/15 08:25:05;;;;;;;6.68;4.60;;;;;;;;;;20995192;28;20478;-65
2023/06/15 08:35:07;;;;;;;6.93;4.80;;;;;;;;;;20994379;28;20053;-64
2023/06/15 08:45:09;;;;;;;7.38;5.00;;;;;;;;;;20995679;28;20516;-65
2023/06/15 08:55:12;;;;;;;5.38;4.70;;;;;;;;;;20995227;28;20079;-65
2023/06/15 09:05:13;;;;;;;6.10;4.30;;;;;;;;;;20993928;28;20128;-64
2023/06/15 09:15:21;;;;;;;8.80;4.22;;;;;;;;;;21007660;28;20041;-66
2023/06/15 09:25:22;;;;;;;9.88;4.15;;;;;;;;;;21009290;28;20514;-66
2023/06/15 09:35:24;;;;;;;4.60;4.10;;;;;;;;;;21007438;28;20056;-66
2023/06/15 09:45:25;;;;;;;6.97;4.53;;;;;;;;;;21007056;28;20111;-68
2023/06/15 09:55:26;;;;;;;4.50;3.92;;;;;;;;;;21007661;28;20049;-67
2023/06/15 10:05:32;;;;;;;7.38;3.47;;;;;;;;;;21005095;28;20400;-70
2023/06/15 10:15:34;;;;;;;4.90;3.30;;;;;;;;;;21005158;28;20048;-69
2023/06/15 10:25:36;;;;;;;3.92;2.40;;;;;;;;;;21004538;28;20049;-61
2023/06/15 10:35:40;;;;;;;3.88;2.70;;;;;;;;;;21001793;28;20056;-63
2023/06/15 10:45:41;;;;;;;4.57;2.20;;;;;;;;;;21000649;28;20106;-62
2023/06/15 10:55:46;;;;;;;4.30;3.10;;;;;;;;;;20999769;28;20071;-64
2023/06/15 11:05:47;;;;;;;5.43;3.20;;;;;;;;;;21001564;28;20477;-62
2023/06/15 11:16:05;;;;;;;4.53;3.83;;;;;;;;;;20999220;28;20048;-61
2023/06/15 11:26:09;;;;;;;3.95;3.40;;;;;;;;;;21000299;28;20466;-61
2023/06/15 11:36:11;;;;;;;5.68;2.85;;;;;;;;;;20995178;28;20052;-69
2023/06/15 11:46:13;;;;;;;4.38;3.28;;;;;;;;;;20998692;28;20547;-70
2023/06/15 11:56:15;;;;;;;5.95;3.92;;;;;;;;;;20998058;28;20454;-69
2023/06/15 12:06:17;;;;;;;4.45;3.00;;;;;;;;;;20997596;28;20045;-70
2023/06/15 12:16:18;;;;;;;11.63;6.70;;;;;;;;;;20994723;28;20072;-70
2023/06/15 12:26:20;;;;;;;6.55;4.85;;;;;;;;;;20994751;28;20049;-70
2023/06/15 12:36:22;;;;;;;5.20;3.58;;;;;;;;;;20994793;28;20071;-69
2023/06/15 12:46:23;;;;;;;5.10;3.20;;;;;;;;;;21005792;28;20119;-70
2023/06/15 12:56:27;;;;;;;3.92;3.20;;;;;;;;;;21011380;28;20409;-71
2023/06/15 13:06:28;;;;;;;3.35;3.05;;;;;;;;;;21008624;28;20056;-69
2023/06/15 13:16:29;;;;;;;5.22;3.92;;;;;;;;;;21009269;28;20501;-70
2023/06/15 13:26:30;;;;;;;3.65;2.53;;;;;;;;;;21008488;28;20045;-70
2023/06/15 13:36:31;;;;;;;3.17;2.70;;;;;;;;;;21008036;28;20049;-69
2023/06/15 13:46:35;;;;;;;2.60;2.40;;;;;;;;;;21007250;28;20048;-70
2023/06/15 13:56:37;;;;;;;11.45;7.82;;;;;;;;;;21006023;28;20044;-70
2023/06/15 14:06:38;;;;;;;3.00;2.58;;;;;;;;;;21007027;28;20112;-70
2023/06/15 14:16:39;;;;;;;4.47;3.35;;;;;;;;;;21006180;28;20063;-71
2023/06/15 14:26:41;;;;;;;3.50;2.70;;;;;;;;;;21005178;28;20059;-70
2023/06/15 14:36:42;;;;;;;4.30;3.33;;;;;;;;;;21005086;28;20450;-70
2023/06/15 14:46:43;;;;;;;3.55;2.80;;;;;;;;;;21003445;28;20048;-70
2023/06/15 14:56:44;;;;;;;7.20;3.10;;;;;;;;;;21003772;28;20044;-70
2023/06/15 15:06:46;;;;;;;5.88;2.97;;;;;;;;;;21001908;28;20499;-69
2023/06/15 15:16:47;;;;;;;3.28;2.80;;;;;;;;;;21001479;28;20457;-69
2023/06/15 15:26:48;;;;;;;4.75;3.10;;;;;;;;;;21000447;28;20128;-70
2023/06/15 15:36:49;;;;;;;7.88;3.97;;;;;;;;;;21000317;28;20057;-70
2023/06/15 15:46:51;;;;;;;50.28;31.70;;;;;;;;;;20999097;28;20563;-69
2023/06/15 15:56:52;;;;;;;18.00;11.18;;;;;;;;;;20997512;28;20136;-71
2023/06/15 16:06:53;;;;;;;21.15;13.68;;;;;;;;;;20996730;28;20076;-70
2023/06/15 16:16:54;;;;;;;10.45;7.20;;;;;;;;;;20995469;28;20135;-71
2023/06/15 16:26:55;;;;;;;7.55;4.10;;;;;;;;;;20996817;28;20059;-70
2023/06/15 16:36:56;;;;;;;6.07;3.55;;;;;;;;;;20996924;28;20044;-71
2023/06/15 16:46:57;;;;;;;7.10;4.07;;;;;;;;;;20996747;28;20498;-70
2023/06/15 16:56:58;;;;;;;3.28;2.97;;;;;;;;;;20994597;28;20048;-70
2023/06/15 17:07:00;;;;;;;4.97;3.22;;;;;;;;;;20994273;28;20063;-67
2023/06/15 17:17:01;;;;;;;5.43;3.65;;;;;;;;;;20995007;28;20036;-62
2023/06/15 17:27:02;;;;;;;5.90;3.55;;;;;;;;;;20994381;28;20155;-65
2023/06/15 17:37:04;;;;;;;4.68;3.45;;;;;;;;;;21007010;28;20044;-64
2023/06/15 17:47:05;;;;;;;5.10;4.47;;;;;;;;;;21007477;28;20542;-65
2023/06/15 17:57:06;;;;;;;4.28;3.50;;;;;;;;;;21007492;28;20055;-65
2023/06/15 18:07:07;;;;;;;4.50;3.45;;;;;;;;;;21005800;28;20037;-63
2023/06/15 18:17:08;;;;;;;8.82;3.95;;;;;;;;;;21006212;28;20041;-64
2023/06/15 18:27:11;;;;;;;8.77;4.63;;;;;;;;;;21005079;28;20054;-62
2023/06/15 18:37:12;;;;;;;4.32;3.55;;;;;;;;;;21005013;28;20040;-62
2023/06/15 18:47:16;;;;;;;13.55;4.97;;;;;;;;;;21003821;28;20041;-62
2023/06/15 18:57:17;;;;;;;5.55;3.58;;;;;;;;;;21001694;28;20052;-62
2023/06/15 19:07:19;;;;;;;5.10;4.25;;;;;;;;;;21001958;28;20124;-62
2023/06/15 19:17:20;;;;;;;5.40;4.10;;;;;;;;;;21000971;28;20076;-67
2023/06/15 19:27:24;;;;;;;5.80;4.20;;;;;;;;;;21000007;28;20067;-66
2023/06/15 19:37:25;;;;;;;5.00;3.60;;;;;;;;;;20997948;28;20052;-67
2023/06/15 19:47:26;;;;;;;5.40;4.20;;;;;;;;;;20998946;28;20037;-67
2023/06/15 19:57:27;;;;;;;6.30;4.35;;;;;;;;;;20997926;28;20044;-67
2023/06/15 20:07:28;;;;;;;6.57;4.18;;;;;;;;;;20996246;28;20055;-67
2023/06/15 20:17:30;;;;;;;9.50;4.85;;;;;;;;;;20997086;28;20053;-66
2023/06/15 20:27:31;;;;;;;5.97;4.88;;;;;;;;;;20996938;28;20582;-67
2023/06/15 20:37:32;;;;;;;6.57;5.03;;;;;;;;;;20995140;28;20044;-66
2023/06/15 20:47:33;;;;;;;18.25;10.90;;;;;;;;;;20995925;28;20041;-67
2023/06/15 20:57:36;;;;;;;11.93;7.38;;;;;;;;;;20995563;28;20101;-66
2023/06/15 21:07:38;;;;;;;12.95;8.00;;;;;;;;;;21002738;28;20037;-67
2023/06/15 21:17:40;;;;;;;10.52;6.68;;;;;;;;;;21010239;28;20488;-67
2023/06/15 21:27:41;;;;;;;11.50;6.70;;;;;;;;;;21008142;28;20053;-66
2023/06/15 21:37:42;;;;;;;7.70;6.60;;;;;;;;;;21009283;28;20052;-66
2023/06/15 21:47:45;;;;;;;12.82;8.35;;;;;;;;;;21008349;28;20090;-66
2023/06/15 21:57:46;;;;;;;10.68;7.45;;;;;;;;;;21006688;28;20050;-66
2023/06/15 22:07:50;;;;;;;11.95;8.38;;;;;;;;;;21005188;28;20044;-66
2023/06/15 22:17:51;;;;;;;10.45;6.55;;;;;;;;;;21004006;28;20044;-67
2023/06/15 22:27:52;;;;;;;8.07;5.85;;;;;;;;;;21003226;28;20060;-66
2023/06/15 22:37:53;;;;;;;9.98;6.03;;;;;;;;;;21001268;28;20055;-66
2023/06/15 22:47:56;;;;;;;35.83;19.80;;;;;;;;;;21002547;28;20044;-66
2023/06/15 22:57:57;;;;;;;12.18;8.02;;;;;;;;;;21001650;28;20052;-67
2023/06/15 23:07:59;;;;;;;9.63;6.57;;;;;;;;;;21000605;28;20370;-66
2023/06/15 23:18:02;;;;;;;8.70;6.15;;;;;;;;;;21000151;28;20128;-67
2023/06/15 23:28:04;;;;;;;9.63;6.50;;;;;;;;;;20998405;28;20063;-67
2023/06/15 23:38:05;;;;;;;6.32;5.68;;;;;;;;;;20998698;28;20123;-66
2023/06/15 23:48:07;;;;;;;7.53;5.60;;;;;;;;;;20997775;28;20441;-67
2023/06/15 23:58:09;;;;;;;9.55;5.80;;;;;;;;;;20998965;28;20040;-66
